Extreme weather reports worldwide

High gusts

Station
 
Location
 
Name
 
Wind
Knots
Gust
Knots
Vis
SM
Temp/Dew
C
Baro
inHg
METAR
 
KMWN 53 59 0 1/1 KMWN 262055Z 30053G59KT 0000 FG VV000 02/02 RMK T00180016
CWNE 29 40 17/16 CWNE 262100Z AUTO 12029G40KT 18/17 RMK AO1 6070 PK WND 11042/2048 SLP981 T01760169 50079
CWLP 32 39 13/9 CWLP 262100Z AUTO 13032G39KT 13/09 RMK AO1 PK WND 12039/2056 SLP004 T01320092 56026
CTB KCTB Cut Bank, US Cut Bank International Airport 25 38 10 27/0 29.75 KCTB 262056Z AUTO 25025G38KT 10SM CLR 27/M01 A2975 RMK AO2 PK WND 26043/2016 SLP038 T02721006 56015
KEF BIKF Reykjavík, IS Keflavik International Airport 26 38 6.21 5/2 29.29 BIKF 262130Z 03026G38KT 9999 -RA FEW012 OVC021 05/02 Q0992

Station
 
Location
 
Name
 
Wind
Knots
Gust
Knots
Vis
SM
Temp/Dew
C
Baro
inHg
METAR
 
KAAO Wichita, US Colonel James Jabara Airport 25 37 10 34/6 29.85 KAAO 262054Z AUTO 21025G37KT 10SM CLR 34/06 A2985 RMK AO2 PK WND 20037/2050 SLP095 T03440061 56024
IAB KIAB Wichita, US Mc Connell Air Force Base 24 37 10 34/5 29.86 KIAB 262056Z AUTO 22024G37KT 10SM CLR 34/06 A2986 RMK AO2 PK WND 24037/46 SLP100 T03430057 57024 $
ICT KICT Wichita, US Wichita Eisenhower National Airport 26 35 10 34/6 29.85 KICT 262053Z 20026G35KT 10SM CLR 34/07 A2985 RMK AO2 PK WND 21036/2040 SLP094 T03440067 56023
ADK PADK Adak Island, US Adak Airport 22 35 5 10/7 29.71 PADK 262056Z AUTO 11022G35KT 5SM -RA BR SCT018 BKN023 OVC029 10/08 A2971 RMK AO2 PK WND 13039/2041 SLP061 P0004 60007 T01000078 58073
CWRO 28 35 11/ CWRO 262100Z AUTO 14028G35KT 12/ RMK AO1 PK WND 13035/2052 SLP953 T0117 58010
STJ KSTJ St Joseph, US Rosecrans Memorial Airport 19 34 10 34/10 29.75 KSTJ 262053Z 22019G34KT 10SM CLR 34/11 A2975 RMK AO2 PK WND 21034/2052 SLP067 T03440106 56026 $
CWGM 18 34 23/0 CWGM 262100Z AUTO 22018G34KT 24/01 RMK AO1 PK WND 25038/2046 T02370009
CWZQ 26 34 18/15 CWZQ 262100Z AUTO 12026G34KT 18/16 RMK AO1 PRESFR PK WND 11034/2049 SLP056 T01830159 58039
CRZ UTAV Türkmenabat, TM Turkmenabat Airport 24 34 0.81 20/8 30.00 UTAV 262100Z 30024G34KT 1300 BLOV NSC 20/08 Q1016 R31/CLRD70 NOSIG
DDC KDDC Dodge City, US Dodge City Regional Airport 19 33 10 34/0 29.86 KDDC 262052Z AUTO 21019G33KT 10SM CLR 34/00 A2986 RMK AO2 PK WND 21033/2010 SLP076 T03440000 56017
MHK KMHK Manhattan, US Manhattan Regional Airport 21 33 10 36/7 29.77 KMHK 262052Z 22021G33KT 10SM CLR 36/08 A2977 RMK AO2 PK WND 21035/1956 SLP068 T03610078 56019
WLD KWLD Winfield/Arkansas City, US Strother Field 23 33 10 / 29.90 KWLD 262054Z AUTO 21023G33KT 10SM CLR A2990 RMK AO2 PK WND 20033/2005 SLPNO 56020 $
CWRZ 24 33 14/13 CWRZ 262100Z AUTO 10024G33KT 14/14 RMK AO1 PRESFR PK WND 11033/2051 SLP014 T01400139 58053
FTU FMSD Tôlanaro, MG Tôlanaro Airport 23 33 6.21 22/18 30.06 FMSD 262100Z 08023G33KT 9999 FEW016 22/18 Q1018
LWC KLWC Lawrence, US Lawrence Municipal Airport 21 32 10 34/9 29.80 KLWC 262052Z AUTO 21021G32KT 10SM CLR 34/09 A2980 RMK AO1 PK WND 23032/2031 SLP084 T03440094 56020
SLN KSLN Salina, US Salina Municipal Airport 18 32 10 36/4 29.78 KSLN 262053Z 23018G32KT 10SM CLR 37/04 A2978 RMK AO2 PK WND 23036/2024 SLP068 T03670044 56021
CNK KCNK Concordia, US Blosser Municipal Airport 18 32 10 37/6 29.75 KCNK 262055Z AUTO 22018G32KT 10SM CLR 37/06 A2975 RMK AO2 PK WND 21032/2047 SLP053 T03720061 56025
KP28 18 32 35/1 29.84 KP28 262056Z AUTO 20018G32KT 36/02 A2984 RMK AO1 PK WND 22032/2016 SLP088 T03560017 56023 $
K1FM 25 32 10 27/-2 29.80 K1FM 262058Z AUTO 25025G32KT 10SM CLR 28/M03 A2980 RMK AO2 PK WND 25032/55 SLP049 T02761028 57013 $
CWWL 17 32 11/8 CWWL 262100Z AUTO 12017G32KT 12/09 RMK AO1 8015 PK WND 13032/2058 SLP961 T01150087 50002
YTE CYTE Cape Dorset, CA Cape Dorset Airport 26 32 6 3/2 29.78 CYTE 262100Z AUTO 12026G32KT 6SM BR OVC004 03/02 A2978 RMK SLP089
YZG CYZG Salluit, CA Salluit Airport 25 32 8 8/6 29.70 CYZG 262100Z 15025G32KT 8SM -SHRA FEW010 OVC037 08/06 A2970 RMK ST1SC7 LAST STFD OBS/NEXT271300 UTC SLP073
HUT KHUT Hutchinson, US Hutchinson Municipal Airport 19 31 10 35/4 29.83 KHUT 262052Z 20019G31KT 10SM CLR 36/04 A2983 RMK AO2 PK WND 21034/2034 SLP075 T03560044 56022
EMP KEMP Emporia, US Emporia Municipal Airport 20 31 10 34/8 29.85 KEMP 262053Z AUTO 20020G31KT 10SM CLR 34/09 A2985 RMK AO2 PK WND 20036/2013 SLP096 T03440089 56017
EWK KEWK Newton, US Newton City-County Airport 22 31 10 33/6 29.85 KEWK 262056Z AUTO 21022G31KT 10SM CLR 34/06 A2985 RMK AO2 PK WND 22032/2018 SLP091 T03390061 56023
WPC CZPC Pincher Creek, CA Pincher Creek Airport 24 31 9 24/3 29.71 CZPC 262100Z AUTO 26024G31KT 9SM CLR 24/03 A2971 RMK SLP038 DENSITY ALT 6100FT
KZO UAOO Kzyl-Orda, KZ Kzyl-Orda Southwest Airport 17 31 3.11 13/9 29.76 UAOO 262100Z 31009G16MPS 5000 DS SCT030CB 13/09 Q1008 NOSIG RMK QFE744/0992
YZP CYZP Sandspit, CA Sandspit Airport 24 31 2.5 12/11 29.34 CYZP 262128Z AUTO 15024G31KT 2 1/2SM -RA BR BKN007 BKN012 OVC110 12/11 A2934 RMK SLP936 DENSITY ALT 300FT
WDG KWDG Enid, US Enid Woodring Regional Airport 23 30 10 36/4 29.89 KWDG 262045Z 21023G30KT 10SM SCT250 36/04 A2989
CNU KCNU Chanute, US Chanute Martin Johnson Airport 19 30 10 35/10 29.89 KCNU 262052Z AUTO 20019G30KT 10SM CLR 35/10 A2989 RMK AO2 PK WND 20030/2025 SLP109 T03500100 56023
DMO KDMO Sedalia, US Sedalia Memorial Airport 17 30 10 31/12 29.89 KDMO 262053Z AUTO 21017G30KT 10SM CLR 31/12 A2989 RMK AO2 PK WND 20031/2030 SLP115 T03110122 56024
MCI KMCI Kansas City, US Kansas City International Airport 20 30 10 32/10 29.80 KMCI 262053Z 21020G30KT 10SM CLR 33/10 A2980 RMK AO2 PK WND 21035/2027 SLP081 T03280100 56021
IRK KIRK Kirksville, US Kirksville Regional Airport 19 30 10 31/0 29.82 KIRK 262055Z AUTO 21019G30KT 10SM CLR 31/01 A2982 RMK AO2 PK WND 22030/2054 SLP094 T03110006 56029
GBD KGBD Great Bend, US Great Bend Municipal Airport 23 30 10 35/2 29.80 KGBD 262056Z AUTO 22023G30KT 10SM CLR 36/02 A2980 RMK AO2 PK WND 20033/2031 SLP072 T03560022 56019
CWRN 25 30 18/17 CWRN 262100Z AUTO 13025G30KT 18/18 RMK AO1 PK WND 11031/2034 SLP069 T01820179 56043
CWSD 22 30 19/18 CWSD 262100Z AUTO 14022G30KT 20/18 RMK AO1 6049 PK WND 13036/2023 SLP996 T01980183 50026
KEZZ Cameron, US Cameron Memorial Airport 22 30 10 32/11 29.80 KEZZ 262135Z AUTO 21022G30KT 10SM CLR 33/11 A2980 RMK AO2 T03260112
ONP KONP Newport, US Newport Municipal Airport 25 30 10 17/11 29.91 KONP 262135Z AUTO 20025G30KT 10SM OVC026 17/11 A2991 RMK AO2
KBIV Holland, US Tulip City Airport 17 29 10 25/8 29.86 KBIV 262053Z AUTO 23017G29KT 10SM CLR 25/09 A2986 RMK AO2 PK WND 25033/2036 SLP111 T02500089 56020
KCQC 18 29 10 20/6 30.22 KCQC 262053Z AUTO 28018G29KT 10SM FEW060 BKN110 21/07 A3022 RMK AO2 PK WND 27029/2044 SLP154 T02060067 56014
DHT KDHT Dalhart, US Dalhart Municipal Airport 19 29 10 29/5 29.98 KDHT 262053Z AUTO 20019G29KT 10SM CLR 29/06 A2998 RMK AO2 PK WND 21029/2007 SLP100 T02940056 56021
KLXT Lee's Summit, US Lee's Summit Municipal Airport 17 29 10 31/11 29.84 KLXT 262053Z AUTO 22017G29KT 10SM CLR 32/12 A2984 RMK AO2 PK WND 20033/2030 SLP096 T03170117 56022
MDW KMDW Chicago, US Chicago Midway International Airport 16 29 10 28/6 29.87 KMDW 262053Z 22016G29KT 10SM FEW200 BKN250 28/06 A2987 RMK AO2 PK WND 22031/2008 SLP105 T02830061 56024
CAO KCAO Clayton, US Clayton Municipal Airpark 15 29 10 30/6 30.01 KCAO 262055Z AUTO 19015G29KT 10SM CLR 30/07 A3001 RMK AO2 PK WND 20035/2020 SLP092 T03000067 56015
END KEND Enid, US Vance Air Force Base 21 29 10 34/6 29.90 KEND 262056Z AUTO 20021G29KT 10SM CLR 35/07 A2990 RMK AO2 PK WND 19032/22 SLP113 T03460068 57023 $